sensor_id;sensor_type;location;lat;lon;timestamp;P1;durP1;ratioP1;P2;durP2;ratioP2
12425;SDS011;6277;49.824;9.562;2023-02-22T00:00:38;3.47;;;2.17;;
12425;SDS011;6277;49.824;9.562;2023-02-22T00:03:08;3.25;;;2.17;;
12425;SDS011;6277;49.824;9.562;2023-02-22T00:05:34;3.47;;;2.50;;
12425;SDS011;6277;49.824;9.562;2023-02-22T00:08:03;5.15;;;2.40;;
12425;SDS011;6277;49.824;9.562;2023-02-22T00:10:29;4.50;;;2.25;;
12425;SDS011;6277;49.824;9.562;2023-02-22T00:12:55;2.92;;;2.15;;
12425;SDS011;6277;49.824;9.562;2023-02-22T00:15:21;5.30;;;2.50;;
12425;SDS011;6277;49.824;9.562;2023-02-22T00:17:51;3.13;;;2.05;;
12425;SDS011;6277;49.824;9.562;2023-02-22T00:20:18;21.02;;;2.75;;
12425;SDS011;6277;49.824;9.562;2023-02-22T00:22:45;12.80;;;2.45;;
12425;SDS011;6277;49.824;9.562;2023-02-22T00:25:15;8.88;;;2.15;;
12425;SDS011;6277;49.824;9.562;2023-02-22T00:27:42;15.57;;;3.03;;
12425;SDS011;6277;49.824;9.562;2023-02-22T00:30:08;23.50;;;2.78;;
12425;SDS011;6277;49.824;9.562;2023-02-22T00:32:43;33.53;;;3.53;;
12425;SDS011;6277;49.824;9.562;2023-02-22T00:35:10;14.75;;;2.83;;
12425;SDS011;6277;49.824;9.562;2023-02-22T00:37:35;5.72;;;2.33;;
12425;SDS011;6277;49.824;9.562;2023-02-22T00:40:05;10.93;;;2.28;;
12425;SDS011;6277;49.824;9.562;2023-02-22T00:42:35;4.05;;;1.90;;
12425;SDS011;6277;49.824;9.562;2023-02-22T00:45:01;2.38;;;1.90;;
12425;SDS011;6277;49.824;9.562;2023-02-22T00:47:27;2.65;;;2.00;;
12425;SDS011;6277;49.824;9.562;2023-02-22T00:49:54;2.70;;;2.00;;
12425;SDS011;6277;49.824;9.562;2023-02-22T00:52:20;2.47;;;1.83;;
12425;SDS011;6277;49.824;9.562;2023-02-22T00:54:45;3.35;;;2.20;;
12425;SDS011;6277;49.824;9.562;2023-02-22T00:57:11;3.70;;;2.25;;
12425;SDS011;6277;49.824;9.562;2023-02-22T00:59:37;3.05;;;2.40;;
12425;SDS011;6277;49.824;9.562;2023-02-22T01:02:02;3.67;;;2.67;;
12425;SDS011;6277;49.824;9.562;2023-02-22T01:04:28;3.70;;;2.50;;
12425;SDS011;6277;49.824;9.562;2023-02-22T01:06:54;3.28;;;2.20;;
12425;SDS011;6277;49.824;9.562;2023-02-22T01:09:20;3.03;;;2.47;;
12425;SDS011;6277;49.824;9.562;2023-02-22T01:11:46;3.35;;;2.38;;
12425;SDS011;6277;49.824;9.562;2023-02-22T01:14:19;3.25;;;2.17;;
12425;SDS011;6277;49.824;9.562;2023-02-22T01:16:45;3.33;;;2.25;;
12425;SDS011;6277;49.824;9.562;2023-02-22T01:19:10;2.65;;;2.10;;
12425;SDS011;6277;49.824;9.562;2023-02-22T01:21:36;2.42;;;1.92;;
12425;SDS011;6277;49.824;9.562;2023-02-22T01:24:04;3.88;;;2.00;;
12425;SDS011;6277;49.824;9.562;2023-02-22T01:26:30;2.45;;;1.90;;
12425;SDS011;6277;49.824;9.562;2023-02-22T01:28:55;2.60;;;1.90;;
12425;SDS011;6277;49.824;9.562;2023-02-22T01:31:21;2.53;;;1.88;;
12425;SDS011;6277;49.824;9.562;2023-02-22T01:33:47;2.05;;;1.58;;
12425;SDS011;6277;49.824;9.562;2023-02-22T01:36:14;2.08;;;1.70;;
12425;SDS011;6277;49.824;9.562;2023-02-22T01:38:40;2.63;;;1.95;;
12425;SDS011;6277;49.824;9.562;2023-02-22T01:41:06;1.90;;;1.73;;
12425;SDS011;6277;49.824;9.562;2023-02-22T01:43:32;2.55;;;2.10;;
12425;SDS011;6277;49.824;9.562;2023-02-22T01:48:49;2.22;;;1.73;;
12425;SDS011;6277;49.824;9.562;2023-02-22T01:51:28;4.55;;;1.95;;
12425;SDS011;6277;49.824;9.562;2023-02-22T01:56:33;2.00;;;1.80;;
12425;SDS011;6277;49.824;9.562;2023-02-22T01:59:04;15.32;;;2.30;;
12425;SDS011;6277;49.824;9.562;2023-02-22T02:01:33;4.40;;;2.22;;
12425;SDS011;6277;49.824;9.562;2023-02-22T02:04:01;4.03;;;2.20;;
12425;SDS011;6277;49.824;9.562;2023-02-22T02:06:32;4.07;;;2.38;;
12425;SDS011;6277;49.824;9.562;2023-02-22T02:09:19;4.57;;;2.00;;
12425;SDS011;6277;49.824;9.562;2023-02-22T02:11:57;8.32;;;2.10;;
12425;SDS011;6277;49.824;9.562;2023-02-22T02:14:28;10.95;;;2.40;;
12425;SDS011;6277;49.824;9.562;2023-02-22T02:16:56;13.18;;;2.85;;
12425;SDS011;6277;49.824;9.562;2023-02-22T02:25:33;15.60;;;2.78;;
12425;SDS011;6277;49.824;9.562;2023-02-22T02:36:17;18.50;;;2.10;;
12425;SDS011;6277;49.824;9.562;2023-02-22T02:38:55;8.95;;;1.58;;
12425;SDS011;6277;49.824;9.562;2023-02-22T02:41:46;23.27;;;2.70;;
12425;SDS011;6277;49.824;9.562;2023-02-22T02:44:16;10.30;;;2.25;;
12425;SDS011;6277;49.824;9.562;2023-02-22T02:46:51;7.35;;;1.80;;
12425;SDS011;6277;49.824;9.562;2023-02-22T02:50:09;14.63;;;1.90;;
12425;SDS011;6277;49.824;9.562;2023-02-22T02:52:19;20.98;;;2.45;;
12425;SDS011;6277;49.824;9.562;2023-02-22T02:54:48;11.18;;;2.15;;
12425;SDS011;6277;49.824;9.562;2023-02-22T02:57:15;10.15;;;1.80;;
12425;SDS011;6277;49.824;9.562;2023-02-22T02:59:40;16.23;;;1.92;;
12425;SDS011;6277;49.824;9.562;2023-02-22T03:05:27;28.48;;;2.80;;
12425;SDS011;6277;49.824;9.562;2023-02-22T03:08:08;30.67;;;2.45;;
12425;SDS011;6277;49.824;9.562;2023-02-22T03:18:51;48.45;;;3.22;;
12425;SDS011;6277;49.824;9.562;2023-02-22T03:24:13;15.23;;;2.35;;
12425;SDS011;6277;49.824;9.562;2023-02-22T03:29:24;33.47;;;3.15;;
12425;SDS011;6277;49.824;9.562;2023-02-22T03:31:54;25.80;;;1.90;;
12425;SDS011;6277;49.824;9.562;2023-02-22T03:34:26;27.23;;;2.08;;
12425;SDS011;6277;49.824;9.562;2023-02-22T03:37:01;18.35;;;1.80;;
12425;SDS011;6277;49.824;9.562;2023-02-22T03:39:32;15.35;;;1.55;;
12425;SDS011;6277;49.824;9.562;2023-02-22T03:42:06;23.73;;;2.00;;
12425;SDS011;6277;49.824;9.562;2023-02-22T03:44:39;35.55;;;2.40;;
12425;SDS011;6277;49.824;9.562;2023-02-22T03:47:08;4.60;;;1.90;;
12425;SDS011;6277;49.824;9.562;2023-02-22T03:52:10;22.70;;;2.50;;
12425;SDS011;6277;49.824;9.562;2023-02-22T03:54:36;26.40;;;2.90;;
12425;SDS011;6277;49.824;9.562;2023-02-22T03:57:25;3.80;;;2.13;;
12425;SDS011;6277;49.824;9.562;2023-02-22T04:00:00;56.00;;;3.47;;
12425;SDS011;6277;49.824;9.562;2023-02-22T04:02:26;46.15;;;3.20;;
12425;SDS011;6277;49.824;9.562;2023-02-22T04:04:52;40.88;;;2.90;;
12425;SDS011;6277;49.824;9.562;2023-02-22T04:07:17;41.45;;;2.80;;
12425;SDS011;6277;49.824;9.562;2023-02-22T04:09:43;21.00;;;2.33;;
12425;SDS011;6277;49.824;9.562;2023-02-22T04:12:09;19.85;;;2.13;;
12425;SDS011;6277;49.824;9.562;2023-02-22T04:14:34;15.65;;;2.80;;
12425;SDS011;6277;49.824;9.562;2023-02-22T04:17:00;13.23;;;2.95;;
12425;SDS011;6277;49.824;9.562;2023-02-22T04:19:26;10.65;;;1.90;;
12425;SDS011;6277;49.824;9.562;2023-02-22T04:21:51;28.58;;;2.80;;
12425;SDS011;6277;49.824;9.562;2023-02-22T04:24:17;22.67;;;2.40;;
12425;SDS011;6277;49.824;9.562;2023-02-22T04:26:42;19.50;;;2.72;;
12425;SDS011;6277;49.824;9.562;2023-02-22T04:29:08;24.80;;;2.83;;
12425;SDS011;6277;49.824;9.562;2023-02-22T04:31:34;13.23;;;1.90;;
12425;SDS011;6277;49.824;9.562;2023-02-22T04:34:00;29.25;;;2.70;;
12425;SDS011;6277;49.824;9.562;2023-02-22T04:36:27;13.73;;;2.05;;
12425;SDS011;6277;49.824;9.562;2023-02-22T04:38:55;20.63;;;2.20;;
12425;SDS011;6277;49.824;9.562;2023-02-22T04:41:21;9.13;;;2.10;;
12425;SDS011;6277;49.824;9.562;2023-02-22T04:43:47;14.82;;;2.25;;
12425;SDS011;6277;49.824;9.562;2023-02-22T04:46:13;14.88;;;2.20;;
12425;SDS011;6277;49.824;9.562;2023-02-22T04:48:38;14.10;;;2.13;;
12425;SDS011;6277;49.824;9.562;2023-02-22T04:51:04;9.93;;;1.85;;
12425;SDS011;6277;49.824;9.562;2023-02-22T04:53:30;6.32;;;2.00;;
12425;SDS011;6277;49.824;9.562;2023-02-22T04:55:56;14.90;;;2.53;;
12425;SDS011;6277;49.824;9.562;2023-02-22T04:58:21;28.30;;;2.80;;
12425;SDS011;6277;49.824;9.562;2023-02-22T05:00:47;25.10;;;2.72;;
12425;SDS011;6277;49.824;9.562;2023-02-22T05:03:13;11.80;;;2.55;;
12425;SDS011;6277;49.824;9.562;2023-02-22T05:05:38;20.90;;;2.70;;
12425;SDS011;6277;49.824;9.562;2023-02-22T05:08:04;18.65;;;3.25;;
12425;SDS011;6277;49.824;9.562;2023-02-22T05:10:29;19.75;;;3.38;;
12425;SDS011;6277;49.824;9.562;2023-02-22T05:12:55;29.80;;;3.40;;
12425;SDS011;6277;49.824;9.562;2023-02-22T05:15:21;21.73;;;3.67;;
12425;SDS011;6277;49.824;9.562;2023-02-22T05:17:46;39.80;;;4.28;;
12425;SDS011;6277;49.824;9.562;2023-02-22T05:20:29;15.10;;;4.07;;
12425;SDS011;6277;49.824;9.562;2023-02-22T05:22:57;19.17;;;3.28;;
12425;SDS011;6277;49.824;9.562;2023-02-22T05:25:24;25.33;;;3.70;;
12425;SDS011;6277;49.824;9.562;2023-02-22T05:27:52;27.27;;;4.38;;
12425;SDS011;6277;49.824;9.562;2023-02-22T05:30:20;25.45;;;3.55;;
12425;SDS011;6277;49.824;9.562;2023-02-22T05:32:48;12.13;;;4.25;;
12425;SDS011;6277;49.824;9.562;2023-02-22T05:35:14;10.27;;;4.18;;
12425;SDS011;6277;49.824;9.562;2023-02-22T05:37:40;24.95;;;4.95;;
12425;SDS011;6277;49.824;9.562;2023-02-22T05:40:05;18.23;;;3.90;;
12425;SDS011;6277;49.824;9.562;2023-02-22T05:42:31;9.50;;;3.30;;
12425;SDS011;6277;49.824;9.562;2023-02-22T05:44:57;12.82;;;2.90;;
12425;SDS011;6277;49.824;9.562;2023-02-22T05:47:24;15.00;;;3.60;;
12425;SDS011;6277;49.824;9.562;2023-02-22T05:49:50;17.35;;;3.45;;
12425;SDS011;6277;49.824;9.562;2023-02-22T05:52:15;13.70;;;3.47;;
12425;SDS011;6277;49.824;9.562;2023-02-22T05:54:41;20.20;;;3.75;;
12425;SDS011;6277;49.824;9.562;2023-02-22T05:57:06;16.77;;;3.30;;
12425;SDS011;6277;49.824;9.562;2023-02-22T05:59:32;12.40;;;3.85;;
12425;SDS011;6277;49.824;9.562;2023-02-22T06:01:57;25.33;;;5.05;;
12425;SDS011;6277;49.824;9.562;2023-02-22T06:04:23;14.15;;;3.92;;
12425;SDS011;6277;49.824;9.562;2023-02-22T06:06:48;12.32;;;3.85;;
12425;SDS011;6277;49.824;9.562;2023-02-22T06:09:14;14.80;;;3.75;;
12425;SDS011;6277;49.824;9.562;2023-02-22T06:11:40;7.72;;;3.35;;
12425;SDS011;6277;49.824;9.562;2023-02-22T06:14:05;8.05;;;3.22;;
12425;SDS011;6277;49.824;9.562;2023-02-22T06:16:32;12.70;;;2.90;;
12425;SDS011;6277;49.824;9.562;2023-02-22T06:18:57;14.52;;;3.30;;
12425;SDS011;6277;49.824;9.562;2023-02-22T06:21:23;15.13;;;3.00;;
12425;SDS011;6277;49.824;9.562;2023-02-22T06:23:49;10.52;;;3.10;;
12425;SDS011;6277;49.824;9.562;2023-02-22T06:26:15;6.13;;;2.85;;
12425;SDS011;6277;49.824;9.562;2023-02-22T06:28:41;6.43;;;3.03;;
12425;SDS011;6277;49.824;9.562;2023-02-22T06:31:07;12.43;;;2.95;;
12425;SDS011;6277;49.824;9.562;2023-02-22T06:33:32;9.90;;;3.08;;
12425;SDS011;6277;49.824;9.562;2023-02-22T06:35:58;9.88;;;3.35;;
12425;SDS011;6277;49.824;9.562;2023-02-22T06:38:24;11.32;;;2.83;;
12425;SDS011;6277;49.824;9.562;2023-02-22T06:40:51;13.82;;;3.72;;
12425;SDS011;6277;49.824;9.562;2023-02-22T06:43:19;13.52;;;3.25;;
12425;SDS011;6277;49.824;9.562;2023-02-22T06:45:48;6.63;;;2.60;;
12425;SDS011;6277;49.824;9.562;2023-02-22T06:48:14;8.95;;;2.60;;
12425;SDS011;6277;49.824;9.562;2023-02-22T06:50:40;8.70;;;2.80;;
12425;SDS011;6277;49.824;9.562;2023-02-22T06:53:05;3.92;;;2.60;;
12425;SDS011;6277;49.824;9.562;2023-02-22T06:55:32;19.85;;;3.40;;
12425;SDS011;6277;49.824;9.562;2023-02-22T06:57:59;5.65;;;2.67;;
12425;SDS011;6277;49.824;9.562;2023-02-22T07:00:25;8.30;;;2.78;;
12425;SDS011;6277;49.824;9.562;2023-02-22T07:02:52;13.73;;;3.35;;
12425;SDS011;6277;49.824;9.562;2023-02-22T07:05:18;4.50;;;3.15;;
12425;SDS011;6277;49.824;9.562;2023-02-22T07:07:45;9.57;;;3.17;;
12425;SDS011;6277;49.824;9.562;2023-02-22T07:10:18;9.02;;;3.42;;
12425;SDS011;6277;49.824;9.562;2023-02-22T07:12:48;4.82;;;3.08;;
12425;SDS011;6277;49.824;9.562;2023-02-22T07:15:16;7.32;;;3.75;;
12425;SDS011;6277;49.824;9.562;2023-02-22T07:17:42;6.63;;;3.30;;
12425;SDS011;6277;49.824;9.562;2023-02-22T07:20:08;10.18;;;2.58;;
12425;SDS011;6277;49.824;9.562;2023-02-22T07:22:35;4.75;;;3.15;;
12425;SDS011;6277;49.824;9.562;2023-02-22T07:25:02;5.40;;;3.45;;
12425;SDS011;6277;49.824;9.562;2023-02-22T07:27:29;5.80;;;3.30;;
12425;SDS011;6277;49.824;9.562;2023-02-22T07:29:55;5.35;;;3.22;;
12425;SDS011;6277;49.824;9.562;2023-02-22T07:32:20;9.23;;;3.70;;
12425;SDS011;6277;49.824;9.562;2023-02-22T07:34:46;5.95;;;3.13;;
12425;SDS011;6277;49.824;9.562;2023-02-22T07:37:11;6.10;;;3.25;;
12425;SDS011;6277;49.824;9.562;2023-02-22T07:39:37;6.60;;;3.55;;
12425;SDS011;6277;49.824;9.562;2023-02-22T07:42:02;5.38;;;3.58;;
12425;SDS011;6277;49.824;9.562;2023-02-22T07:44:28;8.70;;;3.20;;
12425;SDS011;6277;49.824;9.562;2023-02-22T07:46:54;10.05;;;3.63;;
12425;SDS011;6277;49.824;9.562;2023-02-22T07:49:19;6.03;;;3.17;;
12425;SDS011;6277;49.824;9.562;2023-02-22T07:51:45;10.20;;;3.60;;
12425;SDS011;6277;49.824;9.562;2023-02-22T07:54:11;18.13;;;4.32;;
12425;SDS011;6277;49.824;9.562;2023-02-22T07:56:36;7.55;;;3.45;;
12425;SDS011;6277;49.824;9.562;2023-02-22T07:59:07;8.90;;;3.47;;
12425;SDS011;6277;49.824;9.562;2023-02-22T08:01:33;7.80;;;3.90;;
12425;SDS011;6277;49.824;9.562;2023-02-22T08:03:58;6.28;;;3.50;;
12425;SDS011;6277;49.824;9.562;2023-02-22T08:06:24;13.18;;;3.92;;
12425;SDS011;6277;49.824;9.562;2023-02-22T08:08:49;4.68;;;3.65;;
12425;SDS011;6277;49.824;9.562;2023-02-22T08:11:15;9.82;;;3.78;;
12425;SDS011;6277;49.824;9.562;2023-02-22T08:13:41;10.10;;;3.97;;
12425;SDS011;6277;49.824;9.562;2023-02-22T08:16:06;8.50;;;3.30;;
12425;SDS011;6277;49.824;9.562;2023-02-22T08:18:32;16.90;;;3.30;;
12425;SDS011;6277;49.824;9.562;2023-02-22T08:20:57;6.22;;;3.38;;
12425;SDS011;6277;49.824;9.562;2023-02-22T08:23:24;6.82;;;4.18;;
12425;SDS011;6277;49.824;9.562;2023-02-22T08:25:51;6.32;;;3.55;;
12425;SDS011;6277;49.824;9.562;2023-02-22T08:28:18;6.30;;;3.38;;
12425;SDS011;6277;49.824;9.562;2023-02-22T08:30:47;8.38;;;3.92;;
12425;SDS011;6277;49.824;9.562;2023-02-22T08:33:14;8.85;;;3.63;;
12425;SDS011;6277;49.824;9.562;2023-02-22T08:35:43;15.80;;;3.85;;
12425;SDS011;6277;49.824;9.562;2023-02-22T08:38:20;6.60;;;3.17;;
12425;SDS011;6277;49.824;9.562;2023-02-22T08:40:50;4.60;;;3.40;;
12425;SDS011;6277;49.824;9.562;2023-02-22T08:43:16;8.23;;;3.38;;
12425;SDS011;6277;49.824;9.562;2023-02-22T08:45:43;5.47;;;3.30;;
12425;SDS011;6277;49.824;9.562;2023-02-22T08:48:09;14.23;;;3.72;;
12425;SDS011;6277;49.824;9.562;2023-02-22T08:50:34;17.25;;;3.72;;
12425;SDS011;6277;49.824;9.562;2023-02-22T08:53:02;5.03;;;3.17;;
12425;SDS011;6277;49.824;9.562;2023-02-22T08:55:30;10.20;;;5.68;;
12425;SDS011;6277;49.824;9.562;2023-02-22T08:58:01;10.35;;;5.28;;
12425;SDS011;6277;49.824;9.562;2023-02-22T09:00:29;10.25;;;5.15;;
12425;SDS011;6277;49.824;9.562;2023-02-22T09:02:57;13.18;;;6.20;;
12425;SDS011;6277;49.824;9.562;2023-02-22T09:05:23;8.65;;;5.15;;
12425;SDS011;6277;49.824;9.562;2023-02-22T09:07:49;9.20;;;5.75;;
12425;SDS011;6277;49.824;9.562;2023-02-22T09:10:15;6.70;;;4.22;;
12425;SDS011;6277;49.824;9.562;2023-02-22T09:12:45;10.45;;;4.28;;
12425;SDS011;6277;49.824;9.562;2023-02-22T09:15:10;8.45;;;3.90;;
12425;SDS011;6277;49.824;9.562;2023-02-22T09:17:36;6.25;;;3.30;;
12425;SDS011;6277;49.824;9.562;2023-02-22T09:20:03;8.10;;;3.80;;
12425;SDS011;6277;49.824;9.562;2023-02-22T09:22:29;13.57;;;5.32;;
12425;SDS011;6277;49.824;9.562;2023-02-22T09:24:55;10.88;;;4.72;;
12425;SDS011;6277;49.824;9.562;2023-02-22T09:27:21;11.82;;;4.97;;
12425;SDS011;6277;49.824;9.562;2023-02-22T09:29:46;7.55;;;5.20;;
12425;SDS011;6277;49.824;9.562;2023-02-22T09:32:12;7.20;;;4.97;;
12425;SDS011;6277;49.824;9.562;2023-02-22T09:34:41;12.32;;;5.05;;
12425;SDS011;6277;49.824;9.562;2023-02-22T09:37:09;5.90;;;4.47;;
12425;SDS011;6277;49.824;9.562;2023-02-22T09:39:36;5.15;;;3.65;;
12425;SDS011;6277;49.824;9.562;2023-02-22T09:47:19;6.70;;;4.00;;
12425;SDS011;6277;49.824;9.562;2023-02-22T09:49:58;6.18;;;4.00;;
12425;SDS011;6277;49.824;9.562;2023-02-22T09:52:32;7.47;;;3.58;;
12425;SDS011;6277;49.824;9.562;2023-02-22T09:55:09;10.40;;;4.03;;
12425;SDS011;6277;49.824;9.562;2023-02-22T09:57:50;7.10;;;3.65;;
12425;SDS011;6277;49.824;9.562;2023-02-22T10:00:20;7.32;;;3.97;;
12425;SDS011;6277;49.824;9.562;2023-02-22T10:06:05;5.75;;;4.53;;
12425;SDS011;6277;49.824;9.562;2023-02-22T10:08:39;4.72;;;3.95;;
12425;SDS011;6277;49.824;9.562;2023-02-22T10:11:13;5.78;;;4.15;;
12425;SDS011;6277;49.824;9.562;2023-02-22T10:16:35;6.45;;;4.28;;
12425;SDS011;6277;49.824;9.562;2023-02-22T10:21:50;4.38;;;3.72;;
12425;SDS011;6277;49.824;9.562;2023-02-22T10:24:43;6.65;;;4.43;;
12425;SDS011;6277;49.824;9.562;2023-02-22T10:27:20;11.07;;;4.00;;
12425;SDS011;6277;49.824;9.562;2023-02-22T10:29:53;6.03;;;3.70;;
12425;SDS011;6277;49.824;9.562;2023-02-22T10:32:28;5.20;;;4.05;;
12425;SDS011;6277;49.824;9.562;2023-02-22T10:34:58;5.47;;;4.38;;
12425;SDS011;6277;49.824;9.562;2023-02-22T10:37:30;5.55;;;4.05;;
12425;SDS011;6277;49.824;9.562;2023-02-22T10:40:00;4.15;;;3.75;;
12425;SDS011;6277;49.824;9.562;2023-02-22T10:42:37;4.93;;;4.13;;
12425;SDS011;6277;49.824;9.562;2023-02-22T10:45:03;4.93;;;4.38;;
12425;SDS011;6277;49.824;9.562;2023-02-22T10:47:30;6.80;;;4.45;;
12425;SDS011;6277;49.824;9.562;2023-02-22T10:49:57;5.90;;;4.75;;
12425;SDS011;6277;49.824;9.562;2023-02-22T10:52:30;5.22;;;4.28;;
12425;SDS011;6277;49.824;9.562;2023-02-22T10:55:00;5.15;;;4.15;;
12425;SDS011;6277;49.824;9.562;2023-02-22T10:57:31;5.72;;;4.55;;
12425;SDS011;6277;49.824;9.562;2023-02-22T11:00:19;5.60;;;4.38;;
12425;SDS011;6277;49.824;9.562;2023-02-22T11:03:00;4.35;;;3.88;;
12425;SDS011;6277;49.824;9.562;2023-02-22T11:05:43;4.90;;;4.03;;
12425;SDS011;6277;49.824;9.562;2023-02-22T11:08:13;5.72;;;4.18;;
12425;SDS011;6277;49.824;9.562;2023-02-22T11:10:41;5.93;;;4.30;;
12425;SDS011;6277;49.824;9.562;2023-02-22T11:13:43;4.93;;;4.20;;
12425;SDS011;6277;49.824;9.562;2023-02-22T11:16:19;5.00;;;4.10;;
12425;SDS011;6277;49.824;9.562;2023-02-22T11:21:44;5.28;;;4.43;;
12425;SDS011;6277;49.824;9.562;2023-02-22T11:24:12;6.30;;;4.82;;
12425;SDS011;6277;49.824;9.562;2023-02-22T11:26:47;7.32;;;4.63;;
12425;SDS011;6277;49.824;9.562;2023-02-22T11:29:19;6.35;;;4.55;;
12425;SDS011;6277;49.824;9.562;2023-02-22T11:31:57;5.53;;;4.47;;
12425;SDS011;6277;49.824;9.562;2023-02-22T11:34:47;5.85;;;4.70;;
12425;SDS011;6277;49.824;9.562;2023-02-22T11:37:37;6.00;;;4.82;;
12425;SDS011;6277;49.824;9.562;2023-02-22T11:40:04;5.88;;;4.93;;
12425;SDS011;6277;49.824;9.562;2023-02-22T11:42:29;6.70;;;5.38;;
12425;SDS011;6277;49.824;9.562;2023-02-22T11:45:09;5.93;;;5.00;;
12425;SDS011;6277;49.824;9.562;2023-02-22T11:47:55;5.63;;;4.53;;
12425;SDS011;6277;49.824;9.562;2023-02-22T11:52:57;5.10;;;4.18;;
12425;SDS011;6277;49.824;9.562;2023-02-22T11:55:38;4.90;;;4.07;;
12425;SDS011;6277;49.824;9.562;2023-02-22T11:58:23;4.28;;;3.70;;
12425;SDS011;6277;49.824;9.562;2023-02-22T12:01:04;5.57;;;4.95;;
12425;SDS011;6277;49.824;9.562;2023-02-22T12:06:18;5.47;;;4.82;;
12425;SDS011;6277;49.824;9.562;2023-02-22T12:11:25;4.85;;;4.25;;
12425;SDS011;6277;49.824;9.562;2023-02-22T12:14:00;5.82;;;4.50;;
12425;SDS011;6277;49.824;9.562;2023-02-22T12:19:56;7.95;;;5.18;;
12425;SDS011;6277;49.824;9.562;2023-02-22T12:22:34;6.38;;;5.05;;
12425;SDS011;6277;49.824;9.562;2023-02-22T12:25:19;7.03;;;4.95;;
12425;SDS011;6277;49.824;9.562;2023-02-22T12:27:50;5.47;;;4.65;;
12425;SDS011;6277;49.824;9.562;2023-02-22T12:30:21;6.78;;;4.90;;
12425;SDS011;6277;49.824;9.562;2023-02-22T12:32:51;5.90;;;4.60;;
12425;SDS011;6277;49.824;9.562;2023-02-22T12:35:22;5.03;;;4.50;;
12425;SDS011;6277;49.824;9.562;2023-02-22T12:38:13;5.15;;;4.22;;
12425;SDS011;6277;49.824;9.562;2023-02-22T12:40:57;4.85;;;3.92;;
12425;SDS011;6277;49.824;9.562;2023-02-22T12:43:35;5.72;;;4.50;;
12425;SDS011;6277;49.824;9.562;2023-02-22T12:46:28;4.75;;;4.10;;
12425;SDS011;6277;49.824;9.562;2023-02-22T13:00:25;7.60;;;4.20;;
12425;SDS011;6277;49.824;9.562;2023-02-22T13:05:39;5.07;;;4.25;;
12425;SDS011;6277;49.824;9.562;2023-02-22T13:08:16;5.38;;;4.53;;
12425;SDS011;6277;49.824;9.562;2023-02-22T13:10:55;5.35;;;4.10;;
12425;SDS011;6277;49.824;9.562;2023-02-22T13:21:48;5.00;;;4.47;;
12425;SDS011;6277;49.824;9.562;2023-02-22T13:27:22;4.18;;;3.70;;
12425;SDS011;6277;49.824;9.562;2023-02-22T13:29:56;5.07;;;4.55;;
12425;SDS011;6277;49.824;9.562;2023-02-22T13:38:26;5.43;;;4.22;;
12425;SDS011;6277;49.824;9.562;2023-02-22T13:44:13;5.65;;;4.30;;
12425;SDS011;6277;49.824;9.562;2023-02-22T13:49:37;4.90;;;4.00;;
12425;SDS011;6277;49.824;9.562;2023-02-22T13:52:07;5.50;;;4.28;;
12425;SDS011;6277;49.824;9.562;2023-02-22T13:54:43;4.72;;;4.22;;
12425;SDS011;6277;49.824;9.562;2023-02-22T14:10:49;4.97;;;3.75;;
12425;SDS011;6277;49.824;9.562;2023-02-22T14:13:17;5.00;;;4.13;;
12425;SDS011;6277;49.824;9.562;2023-02-22T14:18:28;4.30;;;3.55;;
12425;SDS011;6277;49.824;9.562;2023-02-22T14:23:38;5.00;;;4.18;;
12425;SDS011;6277;49.824;9.562;2023-02-22T14:26:12;5.88;;;4.10;;
12425;SDS011;6277;49.824;9.562;2023-02-22T14:31:21;4.28;;;3.47;;
12425;SDS011;6277;49.824;9.562;2023-02-22T14:34:13;4.72;;;3.72;;
12425;SDS011;6277;49.824;9.562;2023-02-22T14:36:41;4.88;;;3.53;;
12425;SDS011;6277;49.824;9.562;2023-02-22T14:42:22;4.68;;;3.67;;
12425;SDS011;6277;49.824;9.562;2023-02-22T14:50:29;5.40;;;4.28;;
12425;SDS011;6277;49.824;9.562;2023-02-22T14:53:06;8.13;;;6.03;;
12425;SDS011;6277;49.824;9.562;2023-02-22T14:55:47;6.10;;;4.60;;
12425;SDS011;6277;49.824;9.562;2023-02-22T14:58:18;5.50;;;4.28;;
12425;SDS011;6277;49.824;9.562;2023-02-22T15:00:53;5.30;;;4.25;;
12425;SDS011;6277;49.824;9.562;2023-02-22T15:05:46;3.63;;;3.22;;
12425;SDS011;6277;49.824;9.562;2023-02-22T15:08:14;4.07;;;3.45;;
12425;SDS011;6277;49.824;9.562;2023-02-22T15:10:45;3.70;;;3.30;;
12425;SDS011;6277;49.824;9.562;2023-02-22T15:13:14;4.68;;;3.47;;
12425;SDS011;6277;49.824;9.562;2023-02-22T15:15:41;4.25;;;3.10;;
12425;SDS011;6277;49.824;9.562;2023-02-22T15:20:41;3.78;;;3.03;;
12425;SDS011;6277;49.824;9.562;2023-02-22T15:23:06;3.00;;;2.70;;
12425;SDS011;6277;49.824;9.562;2023-02-22T15:25:32;3.17;;;2.80;;
12425;SDS011;6277;49.824;9.562;2023-02-22T15:28:02;3.30;;;2.97;;
12425;SDS011;6277;49.824;9.562;2023-02-22T15:30:30;4.28;;;3.38;;
12425;SDS011;6277;49.824;9.562;2023-02-22T15:33:08;4.22;;;3.67;;
12425;SDS011;6277;49.824;9.562;2023-02-22T15:35:35;3.95;;;3.30;;
12425;SDS011;6277;49.824;9.562;2023-02-22T15:38:05;3.78;;;2.85;;
12425;SDS011;6277;49.824;9.562;2023-02-22T15:40:34;3.30;;;2.70;;
12425;SDS011;6277;49.824;9.562;2023-02-22T15:43:02;3.78;;;2.97;;
12425;SDS011;6277;49.824;9.562;2023-02-22T15:45:32;3.50;;;3.05;;
12425;SDS011;6277;49.824;9.562;2023-02-22T15:47:58;4.13;;;3.42;;
12425;SDS011;6277;49.824;9.562;2023-02-22T15:50:31;4.10;;;3.25;;
12425;SDS011;6277;49.824;9.562;2023-02-22T15:52:59;3.08;;;2.78;;
12425;SDS011;6277;49.824;9.562;2023-02-22T15:57:57;3.47;;;3.08;;
12425;SDS011;6277;49.824;9.562;2023-02-22T16:00:32;3.85;;;3.15;;
12425;SDS011;6277;49.824;9.562;2023-02-22T16:03:33;5.22;;;3.75;;
12425;SDS011;6277;49.824;9.562;2023-02-22T16:05:59;3.83;;;3.00;;
12425;SDS011;6277;49.824;9.562;2023-02-22T16:08:26;3.47;;;2.85;;
12425;SDS011;6277;49.824;9.562;2023-02-22T16:11:04;5.93;;;3.75;;
12425;SDS011;6277;49.824;9.562;2023-02-22T16:13:37;4.72;;;3.65;;
12425;SDS011;6277;49.824;9.562;2023-02-22T16:16:21;6.43;;;4.35;;
12425;SDS011;6277;49.824;9.562;2023-02-22T16:18:51;5.68;;;4.00;;
12425;SDS011;6277;49.824;9.562;2023-02-22T16:21:50;4.63;;;3.50;;
12425;SDS011;6277;49.824;9.562;2023-02-22T16:24:27;9.77;;;5.90;;
12425;SDS011;6277;49.824;9.562;2023-02-22T16:27:01;6.75;;;4.80;;
12425;SDS011;6277;49.824;9.562;2023-02-22T16:29:39;6.07;;;4.75;;
12425;SDS011;6277;49.824;9.562;2023-02-22T16:32:05;8.32;;;4.93;;
12425;SDS011;6277;49.824;9.562;2023-02-22T16:34:31;8.85;;;4.97;;
12425;SDS011;6277;49.824;9.562;2023-02-22T16:36:57;10.85;;;6.05;;
12425;SDS011;6277;49.824;9.562;2023-02-22T16:39:23;9.43;;;6.55;;
12425;SDS011;6277;49.824;9.562;2023-02-22T16:41:51;9.02;;;5.90;;
12425;SDS011;6277;49.824;9.562;2023-02-22T16:44:18;10.90;;;6.75;;
12425;SDS011;6277;49.824;9.562;2023-02-22T16:46:44;9.90;;;6.00;;
12425;SDS011;6277;49.824;9.562;2023-02-22T16:49:10;7.88;;;4.63;;
12425;SDS011;6277;49.824;9.562;2023-02-22T16:51:41;6.25;;;4.82;;
12425;SDS011;6277;49.824;9.562;2023-02-22T16:54:23;6.45;;;4.45;;
12425;SDS011;6277;49.824;9.562;2023-02-22T16:56:52;6.68;;;4.13;;
12425;SDS011;6277;49.824;9.562;2023-02-22T16:59:19;6.10;;;3.95;;
12425;SDS011;6277;49.824;9.562;2023-02-22T17:01:45;9.77;;;5.90;;
12425;SDS011;6277;49.824;9.562;2023-02-22T17:04:15;11.35;;;6.20;;
12425;SDS011;6277;49.824;9.562;2023-02-22T17:06:48;8.65;;;6.18;;
12425;SDS011;6277;49.824;9.562;2023-02-22T17:09:13;9.85;;;6.10;;
12425;SDS011;6277;49.824;9.562;2023-02-22T17:11:40;8.38;;;5.75;;
12425;SDS011;6277;49.824;9.562;2023-02-22T17:14:06;6.75;;;5.38;;
12425;SDS011;6277;49.824;9.562;2023-02-22T17:16:32;7.30;;;4.97;;
12425;SDS011;6277;49.824;9.562;2023-02-22T17:18:58;11.45;;;3.95;;
12425;SDS011;6277;49.824;9.562;2023-02-22T17:21:23;5.60;;;3.65;;
12425;SDS011;6277;49.824;9.562;2023-02-22T17:23:49;4.28;;;3.40;;
12425;SDS011;6277;49.824;9.562;2023-02-22T17:26:15;6.32;;;3.85;;
12425;SDS011;6277;49.824;9.562;2023-02-22T17:28:41;4.47;;;3.35;;
12425;SDS011;6277;49.824;9.562;2023-02-22T17:31:29;5.85;;;4.00;;
12425;SDS011;6277;49.824;9.562;2023-02-22T17:33:55;6.82;;;3.38;;
12425;SDS011;6277;49.824;9.562;2023-02-22T17:36:26;4.68;;;3.80;;